Time;durP1;ratioP1;P1;durP2;ratioP2;P2;SDS_P1;SDS_P2;PMS_P1;PMS_P2;Temp;Humidity;BMP_temperature;BMP_pressure;BME280_temperature;BME280_humidity;BME280_pressure;Samples;Min_cycle;Max_cycle;Signal;HPM_P1;HPM_P2
2023/12/19 00:01:58;;;;;;;9.07;7.50;;;;;;;;;;5052178;28;20230;-82
2023/12/19 00:04:25;;;;;;;8.50;7.17;;;;;;;;;;5053285;28;20235;-83
2023/12/19 00:06:52;;;;;;;12.57;7.87;;;;;;;;;;5053103;28;20236;-83
2023/12/19 00:09:21;;;;;;;9.90;8.27;;;;;;;;;;5053019;28;20275;-83
2023/12/19 00:11:48;;;;;;;10.50;7.20;;;;;;;;;;5052551;28;20324;-82
2023/12/19 00:14:15;;;;;;;10.23;7.67;;;;;;;;;;5052924;28;20282;-82
2023/12/19 00:16:42;;;;;;;9.03;7.00;;;;;;;;;;5052885;28;20237;-83
2023/12/19 00:19:09;;;;;;;9.53;7.47;;;;;;;;;;5052885;28;20225;-82
2023/12/19 00:21:37;;;;;;;11.53;8.13;;;;;;;;;;5052421;28;20229;-83
2023/12/19 00:24:04;;;;;;;9.77;6.87;;;;;;;;;;5052706;28;20590;-83
2023/12/19 00:26:32;;;;;;;9.80;7.00;;;;;;;;;;5052391;28;20226;-84
2023/12/19 00:28:59;;;;;;;9.47;7.87;;;;;;;;;;5052454;28;20231;-83
2023/12/19 00:31:26;;;;;;;9.80;7.40;;;;;;;;;;5052289;28;20251;-83
2023/12/19 00:33:53;;;;;;;8.77;7.13;;;;;;;;;;5052513;28;20221;-83
2023/12/19 00:36:21;;;;;;;10.63;7.80;;;;;;;;;;5051677;28;20225;-83
2023/12/19 00:38:48;;;;;;;10.30;7.30;;;;;;;;;;5044031;28;20574;-83
2023/12/19 00:41:16;;;;;;;9.87;8.07;;;;;;;;;;5052098;28;20236;-83
2023/12/19 00:43:45;;;;;;;9.40;8.43;;;;;;;;;;5052044;28;20319;-83
2023/12/19 00:46:12;;;;;;;11.23;8.33;;;;;;;;;;5052111;28;20250;-83
2023/12/19 00:48:39;;;;;;;9.47;7.90;;;;;;;;;;5052278;28;20239;-83
2023/12/19 00:51:10;;;;;;;11.70;9.27;;;;;;;;;;5051877;28;20229;-83
2023/12/19 00:53:37;;;;;;;11.13;8.10;;;;;;;;;;5051702;28;20235;-83
2023/12/19 00:56:07;;;;;;;10.50;8.07;;;;;;;;;;5047017;28;21562;-83
2023/12/19 00:58:34;;;;;;;10.73;8.30;;;;;;;;;;5051205;28;20634;-83
2023/12/19 01:01:02;;;;;;;10.77;7.20;;;;;;;;;;5051793;28;20239;-83
2023/12/19 01:03:29;;;;;;;17.67;8.73;;;;;;;;;;5052135;28;20267;-83
2023/12/19 01:05:56;;;;;;;10.27;8.00;;;;;;;;;;5051956;28;20290;-83
2023/12/19 01:08:23;;;;;;;8.93;7.70;;;;;;;;;;5052119;28;20236;-83
2023/12/19 01:10:50;;;;;;;10.40;7.77;;;;;;;;;;5051505;28;20241;-83
2023/12/19 01:13:17;;;;;;;10.33;7.43;;;;;;;;;;5050729;28;20217;-83
2023/12/19 01:15:45;;;;;;;9.30;8.27;;;;;;;;;;5051429;28;20618;-83
2023/12/19 01:18:13;;;;;;;10.10;7.60;;;;;;;;;;5051739;28;20762;-83
2023/12/19 01:20:40;;;;;;;7.93;6.97;;;;;;;;;;5051561;28;20237;-83
2023/12/19 01:23:07;;;;;;;9.43;8.27;;;;;;;;;;5043873;28;20229;-83
2023/12/19 01:25:37;;;;;;;8.83;7.73;;;;;;;;;;5051681;28;20248;-83
2023/12/19 01:28:04;;;;;;;9.47;7.90;;;;;;;;;;5051878;28;20233;-83
2023/12/19 01:30:31;;;;;;;10.27;7.63;;;;;;;;;;5051465;28;20245;-83
2023/12/19 01:32:58;;;;;;;9.43;7.87;;;;;;;;;;5050265;28;20215;-82
2023/12/19 01:35:27;;;;;;;9.97;7.50;;;;;;;;;;5051274;28;20241;-82
2023/12/19 01:37:54;;;;;;;10.83;7.53;;;;;;;;;;5051344;28;20235;-82
2023/12/19 01:40:21;;;;;;;10.03;6.53;;;;;;;;;;5051106;28;20200;-81
2023/12/19 01:42:48;;;;;;;13.33;8.40;;;;;;;;;;5052245;28;20217;-82
2023/12/19 01:45:15;;;;;;;9.23;8.03;;;;;;;;;;5052003;28;20211;-82
2023/12/19 01:47:44;;;;;;;10.00;7.70;;;;;;;;;;5051989;28;20232;-82
2023/12/19 01:50:12;;;;;;;9.30;7.37;;;;;;;;;;5051574;28;20292;-83
2023/12/19 01:52:41;;;;;;;11.63;7.03;;;;;;;;;;5051413;28;20216;-82
2023/12/19 01:55:09;;;;;;;10.90;7.67;;;;;;;;;;5050942;28;20200;-82
2023/12/19 01:57:36;;;;;;;9.43;7.50;;;;;;;;;;5050884;28;20226;-82
2023/12/19 02:00:04;;;;;;;7.97;6.63;;;;;;;;;;5050550;28;20213;-83
2023/12/19 02:02:32;;;;;;;8.90;7.07;;;;;;;;;;5051107;28;20299;-82
2023/12/19 02:04:59;;;;;;;9.37;7.07;;;;;;;;;;5050801;28;20285;-82
2023/12/19 02:07:26;;;;;;;9.90;7.57;;;;;;;;;;5049358;28;20232;-83
2023/12/19 02:09:55;;;;;;;11.27;7.83;;;;;;;;;;5050992;28;20208;-82
2023/12/19 02:12:22;;;;;;;11.40;7.37;;;;;;;;;;5050432;28;20244;-83
2023/12/19 02:14:49;;;;;;;9.93;7.83;;;;;;;;;;5050971;28;20694;-82
2023/12/19 02:17:17;;;;;;;9.90;7.40;;;;;;;;;;5050844;28;20232;-82
2023/12/19 02:19:45;;;;;;;7.73;6.87;;;;;;;;;;5053325;28;20241;-81
2023/12/19 02:22:12;;;;;;;8.80;7.30;;;;;;;;;;5056132;28;20258;-81
2023/12/19 02:24:40;;;;;;;10.77;7.93;;;;;;;;;;5059744;28;20283;-81
2023/12/19 02:27:08;;;;;;;10.27;8.50;;;;;;;;;;5057960;28;20227;-81
2023/12/19 02:29:35;;;;;;;10.67;7.37;;;;;;;;;;5049013;28;20214;-82
2023/12/19 02:32:02;;;;;;;11.40;7.13;;;;;;;;;;5053565;28;20714;-82
2023/12/19 02:34:30;;;;;;;14.13;8.53;;;;;;;;;;5054825;28;20680;-82
2023/12/19 02:36:57;;;;;;;7.67;6.10;;;;;;;;;;5052470;28;20400;-82
2023/12/19 02:39:24;;;;;;;8.80;7.10;;;;;;;;;;5054917;28;20224;-81
2023/12/19 02:41:52;;;;;;;8.17;6.93;;;;;;;;;;5054155;28;20240;-82
2023/12/19 02:44:19;;;;;;;7.83;6.93;;;;;;;;;;5054998;28;20222;-82
2023/12/19 02:46:46;;;;;;;7.90;7.07;;;;;;;;;;5054187;28;20225;-83
2023/12/19 02:49:13;;;;;;;7.93;6.73;;;;;;;;;;5054673;28;20216;-83
2023/12/19 02:51:40;;;;;;;9.23;6.83;;;;;;;;;;5054155;28;20302;-83
2023/12/19 02:54:07;;;;;;;8.53;6.70;;;;;;;;;;5054698;28;20205;-82
2023/12/19 02:56:35;;;;;;;8.00;6.27;;;;;;;;;;5053993;28;20231;-83
2023/12/19 02:59:03;;;;;;;6.63;5.90;;;;;;;;;;5054141;28;20232;-83
2023/12/19 03:01:30;;;;;;;9.50;6.93;;;;;;;;;;5053826;28;20236;-82
2023/12/19 03:03:57;;;;;;;8.93;7.77;;;;;;;;;;5045950;28;20227;-82
2023/12/19 03:06:24;;;;;;;11.27;6.40;;;;;;;;;;5053815;28;20225;-82
2023/12/19 03:08:57;;;;;;;10.07;7.57;;;;;;;;;;5054433;28;20233;-82
2023/12/19 03:11:24;;;;;;;8.00;6.27;;;;;;;;;;5054030;28;20235;-82
2023/12/19 03:13:51;;;;;;;8.70;6.87;;;;;;;;;;5053901;28;20244;-82
2023/12/19 03:16:19;;;;;;;9.00;7.00;;;;;;;;;;5053546;28;20239;-82
2023/12/19 03:18:46;;;;;;;11.43;7.17;;;;;;;;;;5054117;28;20231;-83
2023/12/19 03:21:14;;;;;;;7.27;5.50;;;;;;;;;;5053760;28;20710;-82
2023/12/19 03:23:41;;;;;;;11.37;7.33;;;;;;;;;;5053812;28;20225;-83
2023/12/19 03:26:08;;;;;;;12.83;7.17;;;;;;;;;;5053243;28;20869;-83
2023/12/19 03:28:37;;;;;;;12.50;9.10;;;;;;;;;;5054103;28;20321;-82
2023/12/19 03:31:04;;;;;;;11.90;7.33;;;;;;;;;;5053336;28;20725;-83
2023/12/19 03:33:33;;;;;;;10.70;7.97;;;;;;;;;;5053653;28;20666;-82
2023/12/19 03:36:00;;;;;;;13.23;9.87;;;;;;;;;;5052168;28;20239;-83
2023/12/19 03:38:27;;;;;;;19.17;9.07;;;;;;;;;;5053629;28;20220;-82
2023/12/19 03:40:54;;;;;;;10.90;7.43;;;;;;;;;;5044992;28;20269;-82
2023/12/19 03:43:21;;;;;;;19.87;9.27;;;;;;;;;;5053493;28;20716;-83
2023/12/19 03:45:48;;;;;;;14.40;9.97;;;;;;;;;;5052880;28;20248;-82
2023/12/19 03:48:15;;;;;;;13.00;9.27;;;;;;;;;;5053327;28;20780;-82
2023/12/19 03:50:43;;;;;;;14.77;9.03;;;;;;;;;;5053037;28;20233;-82
2023/12/19 03:53:09;;;;;;;13.73;9.93;;;;;;;;;;5053367;28;20213;-82
2023/12/19 03:55:36;;;;;;;11.10;7.70;;;;;;;;;;5053142;28;20223;-82
2023/12/19 03:58:03;;;;;;;12.93;8.10;;;;;;;;;;5051195;28;20224;-82
2023/12/19 04:00:30;;;;;;;13.63;9.70;;;;;;;;;;5047180;28;20241;-82
2023/12/19 04:02:57;;;;;;;18.47;10.33;;;;;;;;;;5052019;28;20209;-82
2023/12/19 04:05:24;;;;;;;16.00;10.47;;;;;;;;;;5046121;28;20244;-82
2023/12/19 04:07:53;;;;;;;17.97;10.37;;;;;;;;;;5052989;28;20283;-82
2023/12/19 04:10:20;;;;;;;21.93;11.47;;;;;;;;;;5052748;28;20213;-82
2023/12/19 04:12:47;;;;;;;18.43;10.67;;;;;;;;;;5052831;28;20272;-81
2023/12/19 04:15:14;;;;;;;16.83;10.80;;;;;;;;;;5052821;28;20203;-82
2023/12/19 04:17:41;;;;;;;15.13;8.93;;;;;;;;;;5053089;28;20236;-81
2023/12/19 04:20:10;;;;;;;18.83;10.53;;;;;;;;;;5052483;28;20209;-82
2023/12/19 04:22:37;;;;;;;19.00;9.77;;;;;;;;;;5052987;28;20213;-82
2023/12/19 04:25:06;;;;;;;24.23;11.63;;;;;;;;;;5052627;28;20232;-82
2023/12/19 04:27:33;;;;;;;24.20;12.83;;;;;;;;;;5052704;28;20285;-82
2023/12/19 04:30:00;;;;;;;22.17;12.17;;;;;;;;;;5052623;28;20217;-82
2023/12/19 04:32:27;;;;;;;9.80;6.87;;;;;;;;;;5052385;28;20225;-82
2023/12/19 04:34:54;;;;;;;29.00;16.33;;;;;;;;;;5052667;28;20212;-82
2023/12/19 04:37:21;;;;;;;25.93;13.57;;;;;;;;;;5052037;28;20712;-82
2023/12/19 04:39:48;;;;;;;25.20;13.87;;;;;;;;;;5052811;28;20220;-82
2023/12/19 04:42:18;;;;;;;24.17;12.80;;;;;;;;;;5051759;28;20229;-82
2023/12/19 04:44:45;;;;;;;23.27;13.87;;;;;;;;;;5052804;28;20225;-82
2023/12/19 04:47:12;;;;;;;31.27;12.27;;;;;;;;;;5051317;28;20236;-81
2023/12/19 04:49:40;;;;;;;26.97;14.90;;;;;;;;;;5052507;28;20262;-81
2023/12/19 04:52:07;;;;;;;17.63;9.67;;;;;;;;;;5051728;28;20237;-81
2023/12/19 04:54:34;;;;;;;13.40;8.80;;;;;;;;;;5052421;28;20287;-82
2023/12/19 04:57:01;;;;;;;25.43;14.20;;;;;;;;;;5051529;28;20230;-82
2023/12/19 04:59:31;;;;;;;22.37;12.30;;;;;;;;;;5052082;28;20205;-82
2023/12/19 05:01:58;;;;;;;13.10;9.53;;;;;;;;;;5043349;28;20602;-82
2023/12/19 05:04:25;;;;;;;22.00;12.00;;;;;;;;;;5052287;28;20225;-82
2023/12/19 05:06:52;;;;;;;20.40;12.50;;;;;;;;;;5051590;28;20657;-82
2023/12/19 05:09:20;;;;;;;6.80;4.93;;;;;;;;;;5051974;28;20638;-82
2023/12/19 05:11:47;;;;;;;23.20;11.67;;;;;;;;;;5051542;28;20266;-82
2023/12/19 05:14:14;;;;;;;10.30;6.27;;;;;;;;;;5051559;28;20220;-82
2023/12/19 05:16:42;;;;;;;14.37;9.47;;;;;;;;;;5051000;28;20237;-82
2023/12/19 05:19:09;;;;;;;21.53;12.10;;;;;;;;;;5051677;28;20238;-82
2023/12/19 05:21:39;;;;;;;20.63;12.17;;;;;;;;;;5051160;28;20229;-82
2023/12/19 05:24:09;;;;;;;29.63;13.53;;;;;;;;;;5049901;28;20204;-81
2023/12/19 05:26:36;;;;;;;27.03;13.73;;;;;;;;;;5045850;28;20248;-82
2023/12/19 05:29:03;;;;;;;14.27;9.33;;;;;;;;;;5051469;28;20758;-82
2023/12/19 05:31:30;;;;;;;21.33;12.43;;;;;;;;;;5051805;28;20230;-81
2023/12/19 05:33:58;;;;;;;24.77;14.13;;;;;;;;;;5051495;28;20669;-81
2023/12/19 05:36:25;;;;;;;23.60;13.60;;;;;;;;;;5051544;28;20230;-81
2023/12/19 05:38:52;;;;;;;15.63;9.47;;;;;;;;;;5051820;28;20588;-81
2023/12/19 05:41:19;;;;;;;21.70;11.43;;;;;;;;;;5051323;28;20221;-81
2023/12/19 05:43:46;;;;;;;21.50;12.33;;;;;;;;;;5051666;28;20216;-81
2023/12/19 05:46:13;;;;;;;23.10;11.80;;;;;;;;;;5050913;28;20321;-81
2023/12/19 05:48:41;;;;;;;24.67;12.27;;;;;;;;;;5051570;28;20576;-81
2023/12/19 05:51:10;;;;;;;18.83;12.03;;;;;;;;;;5051047;28;20283;-81
2023/12/19 05:53:37;;;;;;;19.40;12.47;;;;;;;;;;5051491;28;20210;-81
2023/12/19 05:56:05;;;;;;;19.97;11.20;;;;;;;;;;5050936;28;20244;-81
2023/12/19 05:58:32;;;;;;;16.93;11.10;;;;;;;;;;5043807;28;20226;-81
2023/12/19 06:01:00;;;;;;;22.57;12.13;;;;;;;;;;5046904;28;20253;-81
2023/12/19 06:03:27;;;;;;;13.13;7.67;;;;;;;;;;5055614;28;20232;-82
2023/12/19 06:05:54;;;;;;;16.97;8.40;;;;;;;;;;5055438;28;20673;-81
2023/12/19 06:08:23;;;;;;;23.00;11.60;;;;;;;;;;5055581;28;20599;-82
2023/12/19 06:10:51;;;;;;;16.87;9.50;;;;;;;;;;5055133;28;20731;-80
2023/12/19 06:13:18;;;;;;;12.43;9.37;;;;;;;;;;5054847;28;20214;-79
2023/12/19 06:15:45;;;;;;;16.53;10.33;;;;;;;;;;5054903;28;20330;-79
2023/12/19 06:18:12;;;;;;;6.23;5.23;;;;;;;;;;5054368;28;20574;-80
2023/12/19 06:20:40;;;;;;;18.47;11.27;;;;;;;;;;5054565;28;20237;-79
2023/12/19 06:23:07;;;;;;;19.53;11.37;;;;;;;;;;5054668;28;20210;-80
2023/12/19 06:25:37;;;;;;;10.77;7.77;;;;;;;;;;5054396;28;20290;-80
2023/12/19 06:28:05;;;;;;;15.17;9.70;;;;;;;;;;5049387;28;20233;-80
2023/12/19 06:30:32;;;;;;;11.70;8.07;;;;;;;;;;5054386;28;20256;-80
2023/12/19 06:32:59;;;;;;;10.33;6.13;;;;;;;;;;5054655;28;20202;-80
2023/12/19 06:35:26;;;;;;;13.73;7.87;;;;;;;;;;5054266;28;20241;-80
2023/12/19 06:37:53;;;;;;;15.67;8.83;;;;;;;;;;5052416;28;20367;-79
2023/12/19 06:40:20;;;;;;;10.23;8.17;;;;;;;;;;5054098;28;20206;-80
2023/12/19 06:42:48;;;;;;;10.90;7.33;;;;;;;;;;5054613;28;20202;-80
2023/12/19 06:45:15;;;;;;;14.77;8.47;;;;;;;;;;5046842;28;20257;-80
2023/12/19 06:47:42;;;;;;;8.93;5.63;;;;;;;;;;5051146;28;20234;-80
2023/12/19 06:50:09;;;;;;;13.53;8.77;;;;;;;;;;5053834;28;20209;-80
2023/12/19 06:52:36;;;;;;;15.80;8.40;;;;;;;;;;5054263;28;20236;-80
2023/12/19 06:55:04;;;;;;;11.93;7.80;;;;;;;;;;5053970;28;20206;-80
2023/12/19 06:57:31;;;;;;;9.90;7.23;;;;;;;;;;5051618;28;20804;-79
2023/12/19 06:59:59;;;;;;;14.20;9.03;;;;;;;;;;5054410;28;20697;-79
2023/12/19 07:02:26;;;;;;;15.53;8.50;;;;;;;;;;5045675;28;20291;-80
2023/12/19 07:04:53;;;;;;;13.10;9.10;;;;;;;;;;5054031;28;20721;-80
2023/12/19 07:07:20;;;;;;;14.30;8.80;;;;;;;;;;5053452;28;20287;-79
2023/12/19 07:09:47;;;;;;;11.83;8.00;;;;;;;;;;5053815;28;20730;-80
2023/12/19 07:12:14;;;;;;;12.73;8.97;;;;;;;;;;5053300;28;20232;-79
2023/12/19 07:14:41;;;;;;;15.17;9.97;;;;;;;;;;5053650;28;20218;-79
2023/12/19 07:17:10;;;;;;;13.13;9.10;;;;;;;;;;5053263;28;20225;-79
2023/12/19 07:19:38;;;;;;;14.03;9.57;;;;;;;;;;5053930;28;20216;-79
2023/12/19 07:22:06;;;;;;;13.77;7.70;;;;;;;;;;5052812;28;20249;-79
2023/12/19 07:24:33;;;;;;;4.97;4.53;;;;;;;;;;5053836;28;20206;-80
2023/12/19 07:27:00;;;;;;;4.67;4.23;;;;;;;;;;5053541;28;20241;-80
2023/12/19 07:29:27;;;;;;;12.60;9.30;;;;;;;;;;5053830;28;20210;-80
2023/12/19 07:31:54;;;;;;;12.40;8.57;;;;;;;;;;5045076;28;20237;-80
2023/12/19 07:34:23;;;;;;;3.67;3.40;;;;;;;;;;5045411;28;20214;-80
2023/12/19 07:36:50;;;;;;;7.93;6.00;;;;;;;;;;5053344;28;20230;-81
2023/12/19 07:39:17;;;;;;;14.23;8.43;;;;;;;;;;5053438;28;20585;-80
2023/12/19 07:41:44;;;;;;;11.50;8.33;;;;;;;;;;5053190;28;20230;-80
2023/12/19 07:44:14;;;;;;;9.93;7.13;;;;;;;;;;5051721;28;20272;-80
2023/12/19 07:46:41;;;;;;;10.77;8.23;;;;;;;;;;5053069;28;20719;-80
2023/12/19 07:49:09;;;;;;;11.23;7.23;;;;;;;;;;5053448;28;20237;-80
2023/12/19 07:51:38;;;;;;;5.80;5.07;;;;;;;;;;5052886;28;20230;-80
2023/12/19 07:54:05;;;;;;;8.13;6.13;;;;;;;;;;5051650;28;20665;-80
2023/12/19 07:56:32;;;;;;;8.70;6.73;;;;;;;;;;5049696;28;20234;-81
2023/12/19 07:58:59;;;;;;;5.77;5.17;;;;;;;;;;5049291;28;20222;-80
2023/12/19 08:01:26;;;;;;;6.00;5.50;;;;;;;;;;5044303;28;20233;-80
2023/12/19 08:03:53;;;;;;;7.30;6.03;;;;;;;;;;5053215;28;20206;-81
2023/12/19 08:06:20;;;;;;;10.07;6.97;;;;;;;;;;5052423;28;20238;-80
2023/12/19 08:08:49;;;;;;;12.33;7.43;;;;;;;;;;5053033;28;20222;-80
2023/12/19 08:11:17;;;;;;;10.13;7.00;;;;;;;;;;5052522;28;20309;-80
2023/12/19 08:13:45;;;;;;;12.30;7.23;;;;;;;;;;5052824;28;20591;-79
2023/12/19 08:16:12;;;;;;;7.53;6.73;;;;;;;;;;5052422;28;20265;-80
2023/12/19 08:18:39;;;;;;;10.47;7.47;;;;;;;;;;5048092;28;20606;-79
2023/12/19 08:21:06;;;;;;;13.27;8.57;;;;;;;;;;5048796;28;20230;-79
2023/12/19 08:23:33;;;;;;;13.17;9.53;;;;;;;;;;5052519;28;20206;-80
2023/12/19 08:26:02;;;;;;;13.67;9.63;;;;;;;;;;5052381;28;20230;-80
2023/12/19 08:28:29;;;;;;;12.27;8.53;;;;;;;;;;5044433;28;20253;-80
2023/12/19 08:30:56;;;;;;;9.33;7.50;;;;;;;;;;5052275;28;20233;-80
2023/12/19 08:33:23;;;;;;;8.27;6.93;;;;;;;;;;5052135;28;20210;-80
2023/12/19 08:35:50;;;;;;;9.50;7.40;;;;;;;;;;5052196;28;20226;-80
2023/12/19 08:38:17;;;;;;;11.77;8.13;;;;;;;;;;5052108;28;20588;-80
2023/12/19 08:40:45;;;;;;;16.83;7.33;;;;;;;;;;5052011;28;20230;-80
2023/12/19 08:43:13;;;;;;;13.67;8.67;;;;;;;;;;5051967;28;20214;-80
2023/12/19 08:45:41;;;;;;;12.60;7.00;;;;;;;;;;5048199;28;20732;-79
2023/12/19 08:48:09;;;;;;;8.57;6.07;;;;;;;;;;5052008;28;20578;-80
2023/12/19 08:50:36;;;;;;;9.50;7.17;;;;;;;;;;5051736;28;20735;-80
2023/12/19 08:53:03;;;;;;;12.07;7.90;;;;;;;;;;5048236;28;20210;-79
2023/12/19 08:55:30;;;;;;;13.53;6.30;;;;;;;;;;5051726;28;20312;-80
2023/12/19 08:57:57;;;;;;;11.57;8.03;;;;;;;;;;5051979;28;20647;-79
2023/12/19 09:00:27;;;;;;;12.20;7.77;;;;;;;;;;5051448;28;20309;-78
2023/12/19 09:02:54;;;;;;;8.70;6.10;;;;;;;;;;5059384;28;20237;-80
2023/12/19 09:05:21;;;;;;;12.37;7.70;;;;;;;;;;5050585;28;20213;-80
2023/12/19 09:07:48;;;;;;;12.33;7.87;;;;;;;;;;5053350;28;20317;-79
2023/12/19 09:10:16;;;;;;;13.40;9.13;;;;;;;;;;5052991;28;20232;-79
2023/12/19 09:12:43;;;;;;;5.67;4.20;;;;;;;;;;5051486;28;20214;-78
2023/12/19 09:15:10;;;;;;;9.90;6.97;;;;;;;;;;5051210;28;20210;-78
2023/12/19 09:17:38;;;;;;;10.20;7.37;;;;;;;;;;5051694;28;20701;-79
2023/12/19 09:20:07;;;;;;;4.90;4.50;;;;;;;;;;5051388;28;20260;-78
2023/12/19 09:22:35;;;;;;;6.13;5.53;;;;;;;;;;5040832;28;20256;-79
2023/12/19 09:25:02;;;;;;;10.73;7.60;;;;;;;;;;5050956;28;20220;-79
2023/12/19 09:27:29;;;;;;;11.43;8.33;;;;;;;;;;5050071;28;20266;-79
2023/12/19 09:29:56;;;;;;;20.90;11.50;;;;;;;;;;5050754;28;20214;-81
2023/12/19 09:32:23;;;;;;;8.47;7.03;;;;;;;;;;5049946;28;20284;-80
2023/12/19 09:34:52;;;;;;;10.47;6.83;;;;;;;;;;5051640;28;20206;-81
2023/12/19 09:37:21;;;;;;;10.10;7.53;;;;;;;;;;5049925;28;20229;-80
2023/12/19 09:39:48;;;;;;;6.60;5.97;;;;;;;;;;5050996;28;20206;-81
2023/12/19 09:42:19;;;;;;;7.93;6.37;;;;;;;;;;5052273;28;20239;-81
2023/12/19 09:44:46;;;;;;;11.43;8.20;;;;;;;;;;5050902;28;20209;-80
2023/12/19 09:47:15;;;;;;;10.33;7.87;;;;;;;;;;5050471;28;20237;-81
2023/12/19 09:49:43;;;;;;;10.23;8.43;;;;;;;;;;5051136;28;20268;-81
2023/12/19 09:52:14;;;;;;;7.17;6.43;;;;;;;;;;5050492;28;20275;-77
2023/12/19 09:54:41;;;;;;;9.03;7.03;;;;;;;;;;5050487;28;20206;-78
2023/12/19 09:57:09;;;;;;;10.30;6.97;;;;;;;;;;5050594;28;20872;-80
2023/12/19 09:59:37;;;;;;;10.17;7.67;;;;;;;;;;5051133;28;20206;-79
2023/12/19 10:02:05;;;;;;;12.23;6.63;;;;;;;;;;5050377;28;20237;-79
2023/12/19 10:04:32;;;;;;;24.10;7.33;;;;;;;;;;5050416;28;20308;-79
2023/12/19 10:06:59;;;;;;;6.97;5.67;;;;;;;;;;5049687;28;20546;-77
2023/12/19 10:09:28;;;;;;;10.93;6.93;;;;;;;;;;5050959;28;20249;-77
2023/12/19 10:12:05;;;;;;;13.40;9.30;;;;;;;;;;5050211;28;20222;-77
2023/12/19 10:14:33;;;;;;;8.70;6.50;;;;;;;;;;5050386;28;20214;-76
2023/12/19 10:17:00;;;;;;;6.83;6.03;;;;;;;;;;5049955;28;20301;-78
2023/12/19 10:19:28;;;;;;;5.83;4.57;;;;;;;;;;5050180;28;20210;-77
2023/12/19 10:22:05;;;;;;;9.20;7.40;;;;;;;;;;5050810;28;20731;-77
2023/12/19 10:24:34;;;;;;;6.97;6.03;;;;;;;;;;5050560;28;20205;-76
2023/12/19 10:27:01;;;;;;;9.43;6.97;;;;;;;;;;5050343;28;20244;-77
2023/12/19 10:29:36;;;;;;;5.83;4.93;;;;;;;;;;5050233;28;20229;-77
2023/12/19 10:32:12;;;;;;;9.87;7.90;;;;;;;;;;5049959;28;20253;-79
2023/12/19 10:34:39;;;;;;;8.07;6.83;;;;;;;;;;5043928;28;20259;-79
2023/12/19 10:37:10;;;;;;;3.83;3.50;;;;;;;;;;5050080;28;20225;-80
2023/12/19 10:39:39;;;;;;;8.90;6.37;;;;;;;;;;5045646;28;20230;-80
2023/12/19 10:42:06;;;;;;;7.23;5.93;;;;;;;;;;5049781;28;20229;-79
2023/12/19 10:44:34;;;;;;;11.77;8.43;;;;;;;;;;5050393;28;20689;-80
2023/12/19 10:47:03;;;;;;;6.07;4.40;;;;;;;;;;5053848;28;20280;-77
2023/12/19 10:49:30;;;;;;;9.33;5.97;;;;;;;;;;5054001;28;20209;-78
2023/12/19 10:51:58;;;;;;;7.80;5.97;;;;;;;;;;5053736;28;20226;-78
2023/12/19 10:54:26;;;;;;;6.70;3.77;;;;;;;;;;5053313;28;20202;-78
2023/12/19 10:57:02;;;;;;;3.63;3.37;;;;;;;;;;5053755;28;20271;-78
2023/12/19 10:59:31;;;;;;;7.40;6.03;;;;;;;;;;5053675;28;20653;-77
2023/12/19 11:02:02;;;;;;;14.87;8.33;;;;;;;;;;5053467;28;20308;-77
2023/12/19 11:04:31;;;;;;;6.37;5.73;;;;;;;;;;5053302;28;20206;-77
2023/12/19 11:07:01;;;;;;;7.83;6.17;;;;;;;;;;5053328;28;20704;-78
2023/12/19 11:09:34;;;;;;;4.70;3.97;;;;;;;;;;5053604;28;20206;-78
2023/12/19 11:12:02;;;;;;;11.73;6.37;;;;;;;;;;5053265;28;20311;-77
2023/12/19 11:14:30;;;;;;;8.13;6.47;;;;;;;;;;5052777;28;20321;-76
2023/12/19 11:16:59;;;;;;;8.17;5.33;;;;;;;;;;5048722;28;20593;-77
2023/12/19 11:19:29;;;;;;;11.73;7.67;;;;;;;;;;5052922;28;20214;-77
2023/12/19 11:22:00;;;;;;;5.57;5.03;;;;;;;;;;5052498;28;20230;-80
2023/12/19 11:24:30;;;;;;;4.40;4.07;;;;;;;;;;5047425;28;20209;-80
2023/12/19 11:27:01;;;;;;;10.00;7.30;;;;;;;;;;5053186;28;20225;-80
2023/12/19 11:29:45;;;;;;;11.20;7.70;;;;;;;;;;5053124;28;20264;-79
2023/12/19 11:32:31;;;;;;;7.33;5.70;;;;;;;;;;5052680;28;20313;-79
2023/12/19 11:35:07;;;;;;;7.53;6.50;;;;;;;;;;5053033;28;20688;-80
2023/12/19 11:37:34;;;;;;;6.67;4.97;;;;;;;;;;5052668;28;20530;-80
2023/12/19 11:40:01;;;;;;;8.30;7.10;;;;;;;;;;5053309;28;20205;-80
2023/12/19 11:42:43;;;;;;;2.53;2.43;;;;;;;;;;5052219;28;20237;-80
2023/12/19 11:45:25;;;;;;;8.53;6.43;;;;;;;;;;5052551;28;20256;-80
2023/12/19 11:47:53;;;;;;;10.37;6.30;;;;;;;;;;5045860;28;20585;-77
2023/12/19 11:50:35;;;;;;;4.17;3.53;;;;;;;;;;5052321;28;20261;-77
2023/12/19 11:53:02;;;;;;;5.37;4.20;;;;;;;;;;5052404;28;20198;-77
2023/12/19 11:55:30;;;;;;;3.77;3.40;;;;;;;;;;5051546;28;20236;-77
2023/12/19 11:58:07;;;;;;;9.90;6.43;;;;;;;;;;5051872;28;20254;-77
2023/12/19 12:00:34;;;;;;;6.60;5.13;;;;;;;;;;5051941;28;20765;-80
2023/12/19 12:03:08;;;;;;;7.20;5.23;;;;;;;;;;5052306;28;20202;-80
2023/12/19 12:05:36;;;;;;;8.97;6.03;;;;;;;;;;5051942;28;20316;-80
2023/12/19 12:08:04;;;;;;;6.80;4.33;;;;;;;;;;5052214;28;20617;-80
2023/12/19 12:10:32;;;;;;;6.87;4.87;;;;;;;;;;5044393;28;20240;-80
2023/12/19 12:13:02;;;;;;;7.17;5.93;;;;;;;;;;5051182;28;20213;-77
2023/12/19 12:15:29;;;;;;;5.53;5.03;;;;;;;;;;5051156;28;20237;-77
2023/12/19 12:18:03;;;;;;;5.60;3.60;;;;;;;;;;5052108;28;20226;-79
2023/12/19 12:20:33;;;;;;;8.63;6.60;;;;;;;;;;5050964;28;20666;-79
2023/12/19 12:23:00;;;;;;;5.10;4.60;;;;;;;;;;5051298;28;20897;-79
2023/12/19 12:25:27;;;;;;;4.70;4.10;;;;;;;;;;5051489;28;20233;-79
2023/12/19 12:27:55;;;;;;;4.20;3.77;;;;;;;;;;5051980;28;20237;-78
2023/12/19 12:30:23;;;;;;;4.97;4.37;;;;;;;;;;5051519;28;20291;-79
2023/12/19 12:32:50;;;;;;;5.30;4.73;;;;;;;;;;5051291;28;20203;-79
2023/12/19 12:35:26;;;;;;;6.00;5.50;;;;;;;;;;5051413;28;20202;-79
2023/12/19 12:37:57;;;;;;;6.33;5.20;;;;;;;;;;5052007;28;20224;-78
2023/12/19 12:40:26;;;;;;;6.53;4.87;;;;;;;;;;5051134;28;20264;-79
2023/12/19 12:42:53;;;;;;;5.53;3.97;;;;;;;;;;5051775;28;20233;-79
2023/12/19 12:45:20;;;;;;;2.23;2.13;;;;;;;;;;5051415;28;20252;-79
2023/12/19 12:47:49;;;;;;;6.00;4.93;;;;;;;;;;5051653;28;20239;-78
2023/12/19 12:50:21;;;;;;;8.73;5.47;;;;;;;;;;5051357;28;20208;-79
2023/12/19 12:52:48;;;;;;;8.80;5.47;;;;;;;;;;5045463;28;20284;-78
2023/12/19 12:55:18;;;;;;;6.13;5.07;;;;;;;;;;5051340;28;20256;-79
2023/12/19 12:57:45;;;;;;;4.80;3.57;;;;;;;;;;5043262;28;20254;-78
2023/12/19 13:00:13;;;;;;;6.47;5.40;;;;;;;;;;5051046;28;20719;-79
2023/12/19 13:02:40;;;;;;;10.20;6.13;;;;;;;;;;5050346;28;20263;-79
2023/12/19 13:05:08;;;;;;;9.70;6.30;;;;;;;;;;5050958;28;20286;-79
2023/12/19 13:07:35;;;;;;;5.47;3.97;;;;;;;;;;5050675;28;20722;-78
2023/12/19 13:10:02;;;;;;;7.23;5.17;;;;;;;;;;5050630;28;20203;-82
2023/12/19 13:12:31;;;;;;;3.90;3.60;;;;;;;;;;5050030;28;20204;-79
2023/12/19 13:14:58;;;;;;;6.20;5.17;;;;;;;;;;5051065;28;20205;-79
2023/12/19 13:17:25;;;;;;;8.03;5.70;;;;;;;;;;5050403;28;20239;-78
2023/12/19 13:19:52;;;;;;;7.47;4.53;;;;;;;;;;5051891;28;20231;-78
2023/12/19 13:22:19;;;;;;;6.10;4.60;;;;;;;;;;5049693;28;20687;-78
2023/12/19 13:24:48;;;;;;;5.27;4.77;;;;;;;;;;5042666;28;20208;-78
2023/12/19 13:27:15;;;;;;;5.90;4.33;;;;;;;;;;5050362;28;20320;-78
2023/12/19 13:29:43;;;;;;;6.77;5.50;;;;;;;;;;5050509;28;20643;-78
2023/12/19 13:32:11;;;;;;;6.23;5.50;;;;;;;;;;5049883;28;20228;-78
2023/12/19 13:34:38;;;;;;;9.07;4.97;;;;;;;;;;5050013;28;20210;-78
2023/12/19 13:37:05;;;;;;;4.37;4.03;;;;;;;;;;5049972;28;20228;-78
2023/12/19 13:39:33;;;;;;;7.37;5.50;;;;;;;;;;5050414;28;20242;-79
2023/12/19 13:42:03;;;;;;;6.83;5.67;;;;;;;;;;5048106;28;20236;-79
2023/12/19 13:44:31;;;;;;;6.00;4.13;;;;;;;;;;5047790;28;20233;-79
2023/12/19 13:46:59;;;;;;;4.80;4.23;;;;;;;;;;5049251;28;20699;-78
2023/12/19 13:49:26;;;;;;;6.57;5.27;;;;;;;;;;5050459;28;20230;-78
2023/12/19 13:51:53;;;;;;;3.63;3.27;;;;;;;;;;5049665;28;20234;-79
2023/12/19 13:54:21;;;;;;;5.73;4.50;;;;;;;;;;5050177;28;20207;-78
2023/12/19 13:56:48;;;;;;;5.03;4.57;;;;;;;;;;5041976;28;20237;-78
2023/12/19 13:59:15;;;;;;;6.07;5.10;;;;;;;;;;5050304;28;20314;-79
2023/12/19 14:01:42;;;;;;;6.53;5.57;;;;;;;;;;5049748;28;20796;-79
2023/12/19 14:04:13;;;;;;;5.33;4.13;;;;;;;;;;5050521;28;20256;-79
2023/12/19 14:06:40;;;;;;;3.00;2.80;;;;;;;;;;5050280;28;20322;-79
2023/12/19 14:09:07;;;;;;;3.27;2.53;;;;;;;;;;5051054;28;20221;-79
2023/12/19 14:11:34;;;;;;;4.57;4.17;;;;;;;;;;5049506;28;20739;-79
2023/12/19 14:14:01;;;;;;;4.30;3.97;;;;;;;;;;5049994;28;20220;-78
2023/12/19 14:16:28;;;;;;;2.33;2.17;;;;;;;;;;5050438;28;20359;-79
2023/12/19 14:18:55;;;;;;;3.77;3.47;;;;;;;;;;5050326;28;20276;-79
2023/12/19 14:21:23;;;;;;;7.53;5.97;;;;;;;;;;5053830;28;20263;-79
2023/12/19 14:23:50;;;;;;;3.97;3.60;;;;;;;;;;5053060;28;20213;-79
2023/12/19 14:26:17;;;;;;;3.87;3.53;;;;;;;;;;5053893;28;20664;-79
2023/12/19 14:28:44;;;;;;;5.43;4.37;;;;;;;;;;5053707;28;20302;-79
2023/12/19 14:31:14;;;;;;;7.23;4.43;;;;;;;;;;5053969;28;20248;-79
2023/12/19 14:33:41;;;;;;;7.53;5.97;;;;;;;;;;5053741;28;20219;-78
2023/12/19 14:36:09;;;;;;;8.47;6.13;;;;;;;;;;5052036;28;20220;-80
2023/12/19 14:38:39;;;;;;;5.50;5.00;;;;;;;;;;5054447;28;20251;-78
2023/12/19 14:41:06;;;;;;;3.57;3.27;;;;;;;;;;5053581;28;20229;-78